Time;durP1;ratioP1;P1;durP2;ratioP2;P2;SDS_P1;SDS_P2;PMS_P1;PMS_P2;Temp;Humidity;BMP_temperature;BMP_pressure;BME280_temperature;BME280_humidity;BME280_pressure;Samples;Min_cycle;Max_cycle;Signal;HPM_P1;HPM_P2
2022/03/31 00:00:35;;;;;;;17.47;11.83;;;12.70;54.20;;;;;;5085398;28;20474;-69
2022/03/31 00:03:05;;;;;;;16.63;11.67;;;12.70;54.40;;;;;;5086588;28;20440;-69
2022/03/31 00:05:32;;;;;;;15.20;11.37;;;12.70;54.70;;;;;;5087169;28;20443;-69
2022/03/31 00:08:00;;;;;;;12.70;10.70;;;12.70;54.90;;;;;;5087431;28;20479;-69
2022/03/31 00:10:29;;;;;;;12.03;10.37;;;12.60;55.00;;;;;;5085750;28;20543;-69
2022/03/31 00:12:57;;;;;;;15.17;11.30;;;12.60;55.30;;;;;;5086906;28;20812;-69
2022/03/31 00:15:25;;;;;;;13.10;11.20;;;12.60;55.50;;;;;;5085431;28;20514;-68
2022/03/31 00:17:53;;;;;;;12.67;11.37;;;12.60;55.60;;;;;;5088648;28;20448;-68
2022/03/31 00:33:49;;;;;;;13.43;12.00;;;12.40;55.90;;;;;;5086661;28;20377;-68
2022/03/31 00:36:16;;;;;;;13.97;11.40;;;12.40;56.20;;;;;;5085980;28;20481;-68
2022/03/31 00:39:28;;;;;;;13.40;11.97;;;12.30;56.30;;;;;;5085631;28;20445;-68
2022/03/31 00:41:35;;;;;;;13.73;11.23;;;12.30;56.50;;;;;;5084381;28;21032;-68
2022/03/31 00:44:02;;;;;;;14.63;10.40;;;12.30;56.20;;;;;;5085944;28;20947;-68
2022/03/31 00:46:29;;;;;;;16.00;12.07;;;12.30;56.30;;;;;;5085457;28;20467;-68
2022/03/31 00:48:58;;;;;;;13.67;12.20;;;12.30;56.20;;;;;;5084527;28;20452;-68
2022/03/31 00:51:25;;;;;;;14.17;12.07;;;12.20;56.20;;;;;;5084905;28;20528;-68
2022/03/31 00:53:52;;;;;;;13.63;12.10;;;12.20;56.90;;;;;;5088665;28;20441;-68
2022/03/31 00:56:20;;;;;;;12.00;10.80;;;12.20;56.30;;;;;;5088498;28;20915;-68
2022/03/31 00:58:48;;;;;;;13.87;11.43;;;12.20;56.30;;;;;;5089447;28;20513;-68
2022/03/31 01:01:15;;;;;;;11.87;10.60;;;12.20;56.50;;;;;;5089395;28;20492;-68
2022/03/31 01:03:42;;;;;;;13.40;10.37;;;12.10;56.40;;;;;;5088724;28;20476;-68
2022/03/31 01:06:10;;;;;;;14.17;12.67;;;12.10;56.50;;;;;;5088890;28;20448;-68
2022/03/31 01:08:37;;;;;;;14.00;10.90;;;12.10;56.90;;;;;;5088261;28;20444;-68
2022/03/31 01:11:04;;;;;;;13.27;11.80;;;12.10;57.10;;;;;;5089536;28;20496;-68
2022/03/31 01:13:32;;;;;;;13.53;11.90;;;12.10;57.30;;;;;;5089427;28;20468;-68
2022/03/31 01:15:59;;;;;;;15.90;12.60;;;12.10;57.30;;;;;;5089324;28;20479;-68
2022/03/31 01:18:26;;;;;;;15.77;12.87;;;12.10;57.20;;;;;;5092595;28;20462;-68
2022/03/31 01:20:53;;;;;;;16.37;11.33;;;12.10;57.10;;;;;;5091681;28;20582;-68
2022/03/31 01:23:21;;;;;;;15.83;12.43;;;12.10;57.20;;;;;;5086944;28;20838;-68
2022/03/31 01:25:48;;;;;;;14.13;12.17;;;12.10;57.30;;;;;;5087249;28;20445;-68
2022/03/31 01:28:15;;;;;;;15.13;12.80;;;12.10;57.30;;;;;;5087284;28;20444;-68
2022/03/31 01:30:42;;;;;;;13.00;11.63;;;12.00;57.60;;;;;;5086507;28;20508;-68
2022/03/31 01:33:10;;;;;;;17.93;12.60;;;12.00;57.70;;;;;;5088204;28;21018;-68
2022/03/31 01:35:38;;;;;;;16.73;12.67;;;11.90;57.80;;;;;;5087944;28;20449;-68
2022/03/31 01:38:04;;;;;;;15.90;13.23;;;11.90;57.90;;;;;;5087363;28;20444;-68
2022/03/31 01:40:34;;;;;;;15.87;13.03;;;11.90;58.10;;;;;;5086946;28;20467;-68
2022/03/31 01:43:02;;;;;;;13.77;12.07;;;11.90;58.50;;;;;;5085876;28;20503;-68
2022/03/31 01:45:29;;;;;;;13.07;10.70;;;11.80;58.90;;;;;;5084673;28;20445;-67
2022/03/31 01:47:56;;;;;;;15.73;12.00;;;11.80;59.70;;;;;;5084161;28;20506;-67
2022/03/31 01:50:24;;;;;;;14.17;11.60;;;11.80;60.20;;;;;;5083005;28;20441;-67
2022/03/31 01:52:51;;;;;;;14.70;11.90;;;11.80;60.60;;;;;;5082978;28;20436;-67
2022/03/31 01:55:18;;;;;;;15.20;12.87;;;11.80;60.70;;;;;;5082596;28;20455;-66
2022/03/31 01:57:46;;;;;;;23.97;15.27;;;11.70;60.70;;;;;;5080482;28;20475;-66
2022/03/31 02:00:13;;;;;;;14.00;12.13;;;11.70;61.00;;;;;;5081300;28;20447;-66
2022/03/31 02:02:41;;;;;;;17.93;13.77;;;11.70;61.30;;;;;;5080993;28;20507;-66
2022/03/31 02:05:08;;;;;;;15.10;12.37;;;11.70;62.10;;;;;;5080964;28;20528;-66
2022/03/31 02:07:36;;;;;;;14.63;12.00;;;11.70;61.90;;;;;;5081365;28;20531;-67
2022/03/31 02:10:03;;;;;;;15.80;11.70;;;11.70;62.10;;;;;;5081100;28;20519;-67
2022/03/31 02:12:30;;;;;;;13.27;11.97;;;11.70;63.20;;;;;;5081378;28;20532;-67
2022/03/31 02:14:58;;;;;;;15.63;12.83;;;11.70;63.00;;;;;;5081786;28;20519;-66
2022/03/31 02:17:25;;;;;;;14.77;13.20;;;11.60;63.50;;;;;;5081667;28;21054;-66
2022/03/31 02:19:52;;;;;;;13.60;12.13;;;11.60;63.80;;;;;;5081590;28;20527;-66
2022/03/31 02:22:19;;;;;;;15.90;12.33;;;11.60;63.80;;;;;;5082357;28;20511;-66
2022/03/31 02:24:48;;;;;;;14.17;12.50;;;11.60;63.60;;;;;;5082486;28;20451;-66
2022/03/31 02:27:15;;;;;;;16.40;13.77;;;11.60;63.50;;;;;;5082197;28;20441;-66
2022/03/31 02:29:42;;;;;;;16.47;14.10;;;11.60;64.50;;;;;;5082037;28;20520;-66
2022/03/31 02:32:10;;;;;;;17.50;12.60;;;11.60;64.70;;;;;;5082495;28;20836;-66
2022/03/31 02:34:37;;;;;;;23.90;14.03;;;11.60;64.50;;;;;;5082292;28;20479;-66
2022/03/31 02:37:05;;;;;;;15.33;13.80;;;11.60;64.70;;;;;;5081795;28;20492;-66
2022/03/31 02:39:32;;;;;;;15.30;13.07;;;11.50;66.00;;;;;;5082547;28;20463;-66
2022/03/31 02:42:00;;;;;;;15.87;13.77;;;11.60;66.70;;;;;;5082011;28;20468;-66
2022/03/31 02:44:27;;;;;;;15.20;13.10;;;11.50;67.40;;;;;;5082393;28;20476;-66
2022/03/31 02:46:54;;;;;;;19.13;14.20;;;11.50;67.10;;;;;;5082441;28;20502;-66
2022/03/31 02:49:22;;;;;;;13.77;12.47;;;11.50;67.20;;;;;;5081063;28;20463;-66
2022/03/31 02:51:49;;;;;;;17.40;12.60;;;11.50;68.10;;;;;;5081482;28;20464;-66
2022/03/31 02:57:01;;;;;;;16.13;13.50;;;11.50;68.50;;;;;;5081345;28;20472;-66
2022/03/31 02:59:30;;;;;;;15.70;13.43;;;11.50;69.40;;;;;;5082114;28;20869;-66
2022/03/31 03:01:58;;;;;;;15.23;12.43;;;11.50;69.50;;;;;;5081862;28;20496;-66
2022/03/31 03:04:27;;;;;;;14.93;13.27;;;11.50;69.10;;;;;;5081787;28;20540;-66
2022/03/31 03:06:54;;;;;;;19.43;14.03;;;11.50;69.80;;;;;;5081382;28;20445;-66
2022/03/31 03:09:21;;;;;;;15.27;13.60;;;11.50;70.50;;;;;;5081471;28;20850;-66
2022/03/31 03:11:48;;;;;;;17.20;14.53;;;11.50;71.00;;;;;;5081924;28;20491;-65
2022/03/31 03:14:15;;;;;;;18.93;13.93;;;11.50;71.60;;;;;;5090513;28;20452;-65
2022/03/31 03:16:43;;;;;;;17.37;15.50;;;11.50;72.10;;;;;;5096041;28;20476;-65
2022/03/31 03:19:09;;;;;;;15.23;13.77;;;11.50;72.80;;;;;;5091724;28;20464;-65
2022/03/31 03:21:38;;;;;;;15.60;13.87;;;11.50;73.50;;;;;;5082370;28;20464;-65
2022/03/31 03:24:05;;;;;;;16.90;14.17;;;11.50;74.20;;;;;;5082672;28;20453;-65
2022/03/31 03:26:32;;;;;;;17.50;15.57;;;11.50;74.90;;;;;;5081889;28;20433;-66
2022/03/31 03:28:58;;;;;;;16.60;14.83;;;11.40;75.40;;;;;;5080683;28;20453;-66
2022/03/31 03:31:25;;;;;;;18.50;15.17;;;11.40;76.00;;;;;;5080997;28;20492;-66
2022/03/31 03:33:52;;;;;;;19.73;15.30;;;11.40;76.60;;;;;;5080828;28;20445;-66
2022/03/31 03:36:18;;;;;;;16.20;14.57;;;11.30;75.60;;;;;;5081504;28;20451;-66
2022/03/31 03:38:47;;;;;;;17.80;15.50;;;11.30;76.10;;;;;;5081206;28;20447;-66
2022/03/31 03:41:14;;;;;;;16.50;14.70;;;11.30;77.70;;;;;;5081374;28;20461;-66
2022/03/31 03:43:41;;;;;;;21.17;17.53;;;11.30;78.40;;;;;;5085872;28;20444;-66
2022/03/31 03:46:08;;;;;;;19.70;17.37;;;11.20;79.30;;;;;;5086176;28;20445;-66
2022/03/31 03:48:35;;;;;;;17.47;15.63;;;11.20;80.40;;;;;;5082329;28;20455;-66
2022/03/31 03:51:02;;;;;;;18.77;15.50;;;11.20;81.00;;;;;;5082002;28;20472;-66
2022/03/31 03:53:29;;;;;;;20.27;15.97;;;11.20;80.90;;;;;;5081933;28;20475;-66
2022/03/31 03:55:57;;;;;;;20.70;17.57;;;11.20;81.00;;;;;;5081723;28;20455;-66
2022/03/31 03:58:24;;;;;;;19.60;17.47;;;11.20;81.30;;;;;;5081593;28;20488;-65
2022/03/31 04:00:51;;;;;;;21.50;19.20;;;11.20;82.00;;;;;;5081879;28;20468;-66
2022/03/31 04:03:18;;;;;;;19.90;16.93;;;11.20;82.50;;;;;;5082206;28;20448;-66
2022/03/31 04:05:45;;;;;;;22.07;17.23;;;11.20;83.10;;;;;;5081480;28;20967;-66
2022/03/31 04:08:12;;;;;;;19.97;16.97;;;11.20;83.70;;;;;;5081517;28;20457;-66
2022/03/31 04:10:39;;;;;;;22.00;18.90;;;11.10;84.90;;;;;;5081815;28;20460;-66
2022/03/31 04:13:07;;;;;;;21.40;18.13;;;11.10;84.90;;;;;;5082274;28;20455;-66
2022/03/31 04:15:33;;;;;;;21.80;16.97;;;11.00;84.90;;;;;;5082290;28;20452;-66
2022/03/31 04:18:00;;;;;;;19.23;16.40;;;11.00;85.50;;;;;;5081622;28;20484;-66
2022/03/31 04:20:27;;;;;;;22.70;19.00;;;11.00;85.20;;;;;;5082477;28;20539;-66
2022/03/31 04:22:53;;;;;;;21.73;18.13;;;10.90;86.20;;;;;;5082286;28;20821;-66
2022/03/31 04:25:21;;;;;;;22.73;18.17;;;10.90;86.80;;;;;;5081890;28;20451;-66
2022/03/31 04:27:48;;;;;;;21.13;16.87;;;10.90;87.10;;;;;;5084804;28;20444;-66
2022/03/31 04:30:20;;;;;;;25.70;20.07;;;10.90;87.40;;;;;;5086973;28;20456;-66
2022/03/31 04:32:48;;;;;;;28.73;18.10;;;10.90;87.60;;;;;;5085076;28;20796;-66
2022/03/31 04:35:15;;;;;;;21.87;18.63;;;10.80;87.60;;;;;;5086135;28;20447;-66
2022/03/31 04:37:42;;;;;;;22.37;18.63;;;10.90;88.10;;;;;;5086392;28;20476;-67
2022/03/31 04:40:10;;;;;;;22.07;18.30;;;10.90;88.10;;;;;;5086726;28;20452;-67
2022/03/31 04:42:37;;;;;;;24.73;19.87;;;10.80;88.00;;;;;;5085605;28;20469;-67
2022/03/31 04:45:04;;;;;;;23.60;18.10;;;10.80;88.30;;;;;;5086704;28;20440;-66
2022/03/31 04:47:33;;;;;;;19.73;16.80;;;10.80;88.50;;;;;;5085908;28;20474;-66
2022/03/31 04:50:00;;;;;;;23.70;19.47;;;10.70;88.00;;;;;;5086490;28;20444;-67
2022/03/31 04:52:26;;;;;;;22.50;17.40;;;10.70;88.80;;;;;;5085841;28;20464;-66
2022/03/31 04:54:53;;;;;;;24.63;18.83;;;10.70;89.10;;;;;;5086589;28;20524;-65
2022/03/31 04:57:21;;;;;;;24.50;19.07;;;10.70;89.20;;;;;;5085831;28;20484;-66
2022/03/31 04:59:48;;;;;;;20.80;17.63;;;10.70;89.70;;;;;;5088414;28;20463;-66
2022/03/31 05:02:15;;;;;;;25.10;18.00;;;10.70;89.70;;;;;;5087665;28;20469;-66
2022/03/31 05:04:43;;;;;;;24.90;19.93;;;10.70;89.50;;;;;;5087670;28;20989;-66
2022/03/31 05:07:10;;;;;;;27.93;20.20;;;10.70;89.70;;;;;;5087284;28;20455;-65
2022/03/31 05:09:37;;;;;;;25.83;20.47;;;10.70;90.00;;;;;;5085694;28;20449;-66
2022/03/31 05:12:06;;;;;;;28.53;19.33;;;10.70;89.70;;;;;;5086215;28;20457;-66
2022/03/31 05:14:32;;;;;;;24.17;19.47;;;10.70;90.00;;;;;;5085060;28;20449;-66
2022/03/31 05:16:59;;;;;;;27.13;18.50;;;10.70;90.00;;;;;;5087836;28;20472;-66
2022/03/31 05:19:26;;;;;;;29.87;19.80;;;10.70;90.10;;;;;;5086366;28;20457;-66
2022/03/31 05:21:54;;;;;;;19.03;17.00;;;10.70;90.30;;;;;;5086535;28;20476;-66
2022/03/31 05:24:21;;;;;;;23.90;19.27;;;10.70;90.60;;;;;;5085204;28;20452;-66
2022/03/31 05:26:49;;;;;;;27.57;20.40;;;10.70;90.30;;;;;;5087283;28;20472;-67
2022/03/31 05:29:15;;;;;;;23.97;20.30;;;10.60;90.40;;;;;;5087487;28;20465;-67
2022/03/31 05:31:42;;;;;;;25.80;20.00;;;10.70;90.40;;;;;;5087166;28;20468;-67
2022/03/31 05:34:09;;;;;;;29.70;20.47;;;10.70;90.70;;;;;;5086015;28;20444;-68
2022/03/31 05:36:36;;;;;;;26.03;19.63;;;10.70;90.40;;;;;;5085399;28;20429;-68
2022/03/31 05:39:04;;;;;;;25.03;19.33;;;10.70;90.30;;;;;;5087147;28;20500;-68
2022/03/31 05:41:31;;;;;;;32.47;20.90;;;10.60;90.20;;;;;;5087941;28;20829;-67
2022/03/31 05:43:58;;;;;;;24.73;18.53;;;10.60;90.30;;;;;;5087412;28;20449;-68
2022/03/31 05:46:26;;;;;;;29.47;20.73;;;10.70;90.50;;;;;;5086645;28;20444;-68
2022/03/31 05:48:53;;;;;;;27.77;19.67;;;10.60;90.50;;;;;;5083671;28;20943;-67
2022/03/31 05:51:20;;;;;;;25.13;18.60;;;10.70;90.60;;;;;;5083748;28;20463;-67
2022/03/31 05:53:46;;;;;;;24.00;19.80;;;10.70;90.70;;;;;;5084450;28;20449;-67
2022/03/31 05:56:14;;;;;;;25.27;19.53;;;10.70;90.70;;;;;;5084412;28;20456;-67
2022/03/31 05:58:41;;;;;;;28.80;20.50;;;10.80;90.70;;;;;;5083616;28;20480;-67
2022/03/31 06:01:08;;;;;;;22.80;18.50;;;10.80;90.70;;;;;;5083497;28;21010;-66
2022/03/31 06:03:35;;;;;;;23.20;18.60;;;10.80;90.60;;;;;;5084408;28;20429;-66
2022/03/31 06:06:03;;;;;;;27.90;18.63;;;10.80;90.40;;;;;;5084657;28;20429;-67
2022/03/31 06:08:30;;;;;;;22.33;17.53;;;10.80;90.30;;;;;;5085167;28;20453;-67
2022/03/31 06:10:57;;;;;;;25.60;17.30;;;10.80;90.20;;;;;;5084242;28;20840;-67
2022/03/31 06:13:26;;;;;;;21.43;16.27;;;10.90;90.20;;;;;;5084871;28;20508;-67
2022/03/31 06:15:54;;;;;;;25.17;18.43;;;10.90;90.10;;;;;;5084091;28;20445;-67
2022/03/31 06:18:23;;;;;;;24.13;17.30;;;10.90;90.10;;;;;;5045902;28;1115796;-67
2022/03/31 06:20:50;;;;;;;26.23;18.40;;;10.90;90.20;;;;;;5085827;28;20503;-67
2022/03/31 06:23:16;;;;;;;21.10;17.70;;;10.90;90.00;;;;;;5085555;28;20453;-67
2022/03/31 06:25:44;;;;;;;24.83;17.43;;;10.90;90.00;;;;;;5085726;28;20456;-67
2022/03/31 06:28:11;;;;;;;26.27;18.13;;;10.90;89.70;;;;;;5085514;28;20452;-67
2022/03/31 06:30:39;;;;;;;23.30;19.07;;;10.90;89.60;;;;;;5087079;28;20475;-67
2022/03/31 06:33:06;;;;;;;24.80;18.70;;;10.90;88.80;;;;;;5086879;28;20939;-67
2022/03/31 06:35:33;;;;;;;21.63;17.10;;;11.00;88.90;;;;;;5086702;28;20829;-67
2022/03/31 06:38:01;;;;;;;20.20;17.67;;;11.00;89.00;;;;;;5086995;28;20483;-67
2022/03/31 06:40:31;;;;;;;20.00;17.90;;;11.00;88.80;;;;;;5086505;28;20444;-67
2022/03/31 06:42:58;;;;;;;23.30;18.57;;;11.00;87.80;;;;;;5085781;28;20493;-67
2022/03/31 06:45:25;;;;;;;20.50;16.17;;;11.10;88.00;;;;;;5085787;28;20476;-66
2022/03/31 06:47:55;;;;;;;21.97;17.23;;;11.10;88.00;;;;;;5085654;28;20445;-67
2022/03/31 06:50:21;;;;;;;23.70;18.97;;;11.10;87.90;;;;;;5082393;28;20479;-67
2022/03/31 06:52:48;;;;;;;21.70;18.17;;;11.10;87.90;;;;;;5084450;28;20468;-66
2022/03/31 06:55:15;;;;;;;21.33;16.30;;;11.20;88.10;;;;;;5082179;28;20460;-66
2022/03/31 06:57:41;;;;;;;23.00;18.13;;;11.20;88.00;;;;;;5084135;28;20503;-65
2022/03/31 07:00:09;;;;;;;21.27;18.37;;;11.20;87.70;;;;;;5083212;28;20448;-66
2022/03/31 07:02:36;;;;;;;29.20;23.73;;;11.20;87.70;;;;;;5083316;28;20560;-66
2022/03/31 07:05:05;;;;;;;21.67;18.10;;;11.30;87.60;;;;;;5084202;28;20462;-66
2022/03/31 07:07:32;;;;;;;18.60;16.60;;;11.30;87.30;;;;;;5083691;28;20440;-66
2022/03/31 07:10:00;;;;;;;19.77;17.67;;;11.30;87.00;;;;;;5082401;28;20457;-68
2022/03/31 07:12:27;;;;;;;21.43;17.03;;;11.40;87.20;;;;;;5081935;28;20468;-67
2022/03/31 07:14:54;;;;;;;21.80;17.40;;;11.40;87.10;;;;;;5081986;28;20443;-67
2022/03/31 07:17:20;;;;;;;19.40;17.10;;;11.40;86.70;;;;;;5082359;28;20452;-67
2022/03/31 07:19:47;;;;;;;21.63;17.50;;;11.50;86.60;;;;;;5081755;28;20459;-67
2022/03/31 07:22:15;;;;;;;21.70;17.27;;;11.50;86.50;;;;;;5080849;28;20479;-66
2022/03/31 07:24:42;;;;;;;17.63;15.37;;;11.50;86.70;;;;;;5081646;28;20453;-66
2022/03/31 07:27:09;;;;;;;23.83;17.70;;;11.60;86.20;;;;;;5081201;28;20448;-66
2022/03/31 07:29:35;;;;;;;17.80;15.23;;;11.60;86.00;;;;;;5080307;28;20444;-66
2022/03/31 07:32:02;;;;;;;21.70;16.23;;;11.70;86.50;;;;;;5081145;28;20555;-66
2022/03/31 07:34:29;;;;;;;19.17;16.13;;;11.70;86.30;;;;;;5083025;28;20452;-67
2022/03/31 07:36:56;;;;;;;18.93;15.50;;;11.70;86.30;;;;;;5096183;28;20448;-67
2022/03/31 07:39:24;;;;;;;22.53;18.93;;;11.80;85.70;;;;;;5096596;28;20544;-67
2022/03/31 07:41:51;;;;;;;22.00;16.80;;;11.80;84.30;;;;;;5085514;28;20472;-66
2022/03/31 07:44:18;;;;;;;20.00;16.80;;;11.90;84.10;;;;;;5081846;28;20459;-66
2022/03/31 07:46:46;;;;;;;20.13;15.80;;;11.90;84.80;;;;;;5080769;28;20444;-66
2022/03/31 07:49:14;;;;;;;20.53;16.17;;;12.00;84.80;;;;;;5080450;28;20827;-66
2022/03/31 07:51:40;;;;;;;19.10;15.83;;;12.10;84.90;;;;;;5079456;28;20476;-66
2022/03/31 07:54:08;;;;;;;20.30;17.27;;;12.10;84.30;;;;;;5079478;28;20444;-67
2022/03/31 07:56:36;;;;;;;22.63;15.80;;;12.20;84.00;;;;;;5079768;28;20550;-67
2022/03/31 07:59:03;;;;;;;26.70;18.10;;;12.30;83.80;;;;;;5080017;28;20525;-66
2022/03/31 08:01:30;;;;;;;18.57;16.57;;;12.30;83.10;;;;;;5079193;28;20813;-66
2022/03/31 08:03:57;;;;;;;22.00;16.40;;;12.40;83.00;;;;;;5079215;28;20448;-66
2022/03/31 08:06:24;;;;;;;16.57;14.83;;;12.50;82.70;;;;;;5078413;28;20449;-66
2022/03/31 08:08:51;;;;;;;19.40;16.10;;;12.50;82.30;;;;;;5080186;28;20445;-66
2022/03/31 08:11:17;;;;;;;18.70;15.90;;;12.60;81.90;;;;;;5084357;28;20464;-66
2022/03/31 08:13:45;;;;;;;20.20;15.97;;;12.60;82.30;;;;;;5079534;28;20444;-67
2022/03/31 08:16:12;;;;;;;20.13;16.77;;;12.70;81.90;;;;;;5079743;28;20444;-69
2022/03/31 08:18:39;;;;;;;19.53;16.00;;;12.80;81.20;;;;;;5079098;28;20488;-68
2022/03/31 08:21:06;;;;;;;21.23;16.33;;;12.80;81.00;;;;;;5078999;28;20473;-68
2022/03/31 08:23:33;;;;;;;23.30;16.23;;;12.90;80.40;;;;;;5080150;28;20497;-68
2022/03/31 08:26:01;;;;;;;20.13;17.30;;;12.90;80.00;;;;;;5080078;28;20448;-68
2022/03/31 08:28:31;;;;;;;19.00;15.53;;;12.90;78.30;;;;;;5081961;28;20510;-68
2022/03/31 08:31:00;;;;;;;20.57;18.33;;;12.90;77.10;;;;;;5082527;28;20472;-68
2022/03/31 08:33:26;;;;;;;22.07;18.40;;;12.80;76.90;;;;;;5083764;28;20449;-69
2022/03/31 08:35:53;;;;;;;22.20;17.37;;;12.80;77.10;;;;;;5085597;28;20444;-69
2022/03/31 08:38:20;;;;;;;17.83;15.93;;;12.70;77.60;;;;;;5085514;28;20473;-69
2022/03/31 08:40:48;;;;;;;20.30;17.27;;;12.70;76.60;;;;;;5082904;28;20492;-68
2022/03/31 08:43:14;;;;;;;20.67;16.33;;;12.60;76.30;;;;;;5083162;28;20531;-68
2022/03/31 08:45:42;;;;;;;26.27;20.77;;;12.50;75.80;;;;;;5084049;28;20459;-68
2022/03/31 08:48:11;;;;;;;41.63;32.47;;;12.40;76.20;;;;;;5084129;28;20445;-68
2022/03/31 08:50:38;;;;;;;25.50;22.70;;;12.40;77.60;;;;;;5083814;28;20936;-68
2022/03/31 08:53:05;;;;;;;21.83;19.27;;;12.40;77.90;;;;;;5084416;28;20452;-68
2022/03/31 08:55:32;;;;;;;19.83;17.73;;;12.40;77.90;;;;;;5085144;28;20440;-70
2022/03/31 08:57:59;;;;;;;18.17;15.83;;;12.40;77.90;;;;;;5085070;28;20455;-70
2022/03/31 09:00:26;;;;;;;21.17;17.13;;;12.50;77.50;;;;;;5084989;28;20947;-69
2022/03/31 09:02:58;;;;;;;21.23;16.67;;;12.50;76.10;;;;;;5085851;28;20527;-69
2022/03/31 09:05:27;;;;;;;19.97;16.87;;;12.50;75.60;;;;;;5085380;28;20444;-69
2022/03/31 09:07:58;;;;;;;19.17;16.87;;;12.50;75.70;;;;;;5084544;28;20444;-69
2022/03/31 09:10:32;;;;;;;17.40;14.67;;;12.60;76.10;;;;;;5084652;28;20525;-69
2022/03/31 09:13:02;;;;;;;20.43;16.43;;;12.60;76.30;;;;;;5086886;28;20952;-69
2022/03/31 09:15:30;;;;;;;19.67;16.83;;;12.60;77.10;;;;;;5089119;28;20444;-69
2022/03/31 09:17:58;;;;;;;18.40;16.37;;;12.60;76.40;;;;;;5088973;28;20447;-69
2022/03/31 09:20:39;;;;;;;21.40;17.00;;;12.50;76.50;;;;;;5087739;28;20460;-69
2022/03/31 09:23:06;;;;;;;18.03;15.70;;;12.50;77.50;;;;;;5087567;28;20439;-69
2022/03/31 09:25:33;;;;;;;19.23;16.97;;;12.40;78.00;;;;;;5088108;28;20433;-69
2022/03/31 09:28:01;;;;;;;17.00;15.13;;;12.30;78.40;;;;;;5087176;28;20518;-69
2022/03/31 09:30:31;;;;;;;18.87;15.90;;;12.20;78.80;;;;;;5089064;28;20488;-68
2022/03/31 09:33:02;;;;;;;21.57;18.07;;;12.10;79.50;;;;;;5089030;28;20535;-68
2022/03/31 09:35:30;;;;;;;20.87;16.73;;;12.00;80.00;;;;;;5087994;28;20456;-68
2022/03/31 09:37:59;;;;;;;22.27;16.23;;;12.00;80.40;;;;;;5088428;28;20527;-68
2022/03/31 09:40:37;;;;;;;24.67;20.30;;;11.90;81.20;;;;;;5088259;28;20460;-68
2022/03/31 09:43:04;;;;;;;27.53;21.87;;;11.80;80.60;;;;;;5090749;28;20437;-69
2022/03/31 09:45:39;;;;;;;29.67;23.60;;;11.70;81.50;;;;;;5091249;28;20503;-67
2022/03/31 09:48:16;;;;;;;30.17;24.40;;;11.70;83.10;;;;;;5076202;28;20444;-67
2022/03/31 09:50:45;;;;;;;32.20;25.30;;;11.60;83.00;;;;;;5075779;28;20468;-68
2022/03/31 09:53:13;;;;;;;25.33;21.83;;;11.50;83.20;;;;;;5075862;28;20440;-68
2022/03/31 09:55:41;;;;;;;27.07;23.80;;;11.50;83.70;;;;;;5075585;28;20448;-67
2022/03/31 09:58:09;;;;;;;33.27;27.90;;;11.40;84.20;;;;;;5075546;28;20447;-68
2022/03/31 10:00:36;;;;;;;33.47;28.03;;;11.40;84.20;;;;;;5075435;28;20444;-68
2022/03/31 10:03:04;;;;;;;36.77;28.97;;;11.30;83.70;;;;;;5075447;28;20449;-68
2022/03/31 10:05:34;;;;;;;33.63;29.33;;;11.30;84.20;;;;;;5075214;28;20457;-67
2022/03/31 10:08:03;;;;;;;34.00;29.73;;;11.20;84.60;;;;;;5075691;28;20474;-67
2022/03/31 10:10:32;;;;;;;32.47;25.10;;;11.20;85.40;;;;;;5075228;28;20451;-68
2022/03/31 10:13:05;;;;;;;36.80;28.77;;;11.20;86.00;;;;;;5075293;28;20449;-67
2022/03/31 10:15:36;;;;;;;35.60;28.67;;;11.20;85.70;;;;;;5075258;28;20429;-67
2022/03/31 10:18:04;;;;;;;33.77;27.80;;;11.10;85.20;;;;;;5074866;28;20912;-67
2022/03/31 10:20:31;;;;;;;35.47;26.60;;;11.00;85.50;;;;;;5075109;28;20472;-67
2022/03/31 10:25:47;;;;;;;37.30;28.30;;;10.90;86.00;;;;;;5074484;28;20401;-67
2022/03/31 10:28:16;;;;;;;39.73;32.07;;;10.90;86.20;;;;;;5074910;28;20447;-67
2022/03/31 10:30:54;;;;;;;35.43;28.53;;;10.90;86.40;;;;;;5074813;28;20473;-67
2022/03/31 10:33:30;;;;;;;38.90;29.43;;;10.80;87.00;;;;;;5075423;28;20428;-67
2022/03/31 10:36:09;;;;;;;34.60;27.97;;;10.80;87.10;;;;;;5074860;28;20434;-67
2022/03/31 10:38:37;;;;;;;39.07;29.60;;;10.80;87.60;;;;;;5074723;28;20519;-67
2022/03/31 10:41:08;;;;;;;42.27;33.70;;;10.80;87.50;;;;;;5074690;28;20477;-67
2022/03/31 10:43:40;;;;;;;35.50;28.73;;;10.80;87.20;;;;;;5074688;28;20527;-67
2022/03/31 10:46:15;;;;;;;41.37;31.00;;;10.80;87.90;;;;;;5074409;28;20974;-67
2022/03/31 10:48:49;;;;;;;35.23;28.10;;;10.80;87.70;;;;;;5074240;28;20934;-67
2022/03/31 10:51:16;;;;;;;37.80;30.33;;;10.80;87.30;;;;;;5074518;28;20476;-67
2022/03/31 10:53:48;;;;;;;39.93;31.80;;;10.70;88.80;;;;;;5074523;28;20448;-67
2022/03/31 10:56:24;;;;;;;39.33;30.77;;;10.70;88.00;;;;;;5075310;28;20818;-66
2022/03/31 10:58:52;;;;;;;42.47;32.47;;;10.70;88.30;;;;;;5074331;28;20468;-67
2022/03/31 11:01:20;;;;;;;41.87;33.23;;;10.70;88.00;;;;;;5074253;28;20472;-67
2022/03/31 11:03:47;;;;;;;44.47;33.60;;;10.70;88.00;;;;;;5074309;28;20445;-67
2022/03/31 11:06:15;;;;;;;45.17;33.57;;;10.70;87.80;;;;;;5074288;28;20479;-67
2022/03/31 11:08:43;;;;;;;48.10;34.50;;;10.60;88.30;;;;;;5074123;28;20449;-67
2022/03/31 11:11:20;;;;;;;43.50;32.57;;;10.50;88.50;;;;;;5074057;28;20527;-67
2022/03/31 11:13:47;;;;;;;46.00;33.63;;;10.60;88.60;;;;;;5074126;28;20796;-67
2022/03/31 11:16:15;;;;;;;45.23;35.63;;;10.50;88.20;;;;;;5074271;28;20445;-66
2022/03/31 11:18:42;;;;;;;44.10;33.47;;;10.40;88.60;;;;;;5073878;28;20468;-67
2022/03/31 11:21:10;;;;;;;43.20;32.97;;;10.40;88.90;;;;;;5073777;28;20464;-67
2022/03/31 11:23:47;;;;;;;46.10;34.63;;;10.30;89.40;;;;;;5073449;28;21092;-67
2022/03/31 11:26:16;;;;;;;44.50;32.70;;;10.20;89.90;;;;;;5073998;28;20798;-67
2022/03/31 11:28:46;;;;;;;44.00;31.37;;;10.20;90.20;;;;;;5073884;28;20445;-67
2022/03/31 11:31:14;;;;;;;38.77;30.37;;;10.20;90.30;;;;;;5073822;28;20468;-67
2022/03/31 11:33:40;;;;;;;43.93;30.70;;;10.10;90.20;;;;;;5073797;28;20452;-67
2022/03/31 11:36:07;;;;;;;36.00;27.40;;;10.00;90.20;;;;;;5073335;28;20522;-66
2022/03/31 11:38:34;;;;;;;31.47;23.67;;;10.00;90.30;;;;;;5073847;28;20453;-67
2022/03/31 11:41:01;;;;;;;33.30;25.00;;;9.90;90.80;;;;;;5073621;28;20489;-67
2022/03/31 11:43:29;;;;;;;33.77;25.83;;;9.90;91.00;;;;;;5073514;28;20457;-67
2022/03/31 11:45:57;;;;;;;31.50;24.23;;;9.90;91.30;;;;;;5073602;28;20464;-66
2022/03/31 11:48:31;;;;;;;31.47;21.93;;;9.80;91.20;;;;;;5073788;28;20471;-67
2022/03/31 11:50:59;;;;;;;31.50;22.97;;;9.80;91.40;;;;;;5073934;28;20464;-67
2022/03/31 11:53:27;;;;;;;27.07;20.90;;;9.80;91.50;;;;;;5073316;28;20861;-67
2022/03/31 11:55:59;;;;;;;24.40;20.07;;;9.80;91.50;;;;;;5073598;28;20454;-67
2022/03/31 11:58:26;;;;;;;21.93;19.33;;;9.80;91.50;;;;;;5073584;28;20487;-67
2022/03/31 12:00:54;;;;;;;21.40;19.00;;;9.80;91.50;;;;;;5073366;28;20498;-67
2022/03/31 12:03:22;;;;;;;25.07;20.07;;;9.80;91.70;;;;;;5073491;28;20449;-67
2022/03/31 12:05:57;;;;;;;22.60;18.53;;;9.80;91.70;;;;;;5073975;28;20524;-66
2022/03/31 12:08:25;;;;;;;21.10;17.53;;;9.90;91.90;;;;;;5073610;28;20452;-66
2022/03/31 12:10:53;;;;;;;21.23;17.30;;;9.90;91.80;;;;;;5073618;28;20465;-66
2022/03/31 12:13:22;;;;;;;21.80;17.47;;;9.80;91.20;;;;;;5073407;28;20464;-66
2022/03/31 12:15:49;;;;;;;24.90;18.40;;;9.90;91.20;;;;;;5073678;28;20467;-66
2022/03/31 12:18:18;;;;;;;18.90;16.90;;;9.90;91.30;;;;;;5073297;28;20466;-67
2022/03/31 12:20:48;;;;;;;23.13;17.53;;;9.90;91.50;;;;;;5072964;28;20495;-67
2022/03/31 12:23:20;;;;;;;23.83;18.07;;;10.00;90.80;;;;;;5073359;28;20456;-66
2022/03/31 12:25:48;;;;;;;18.30;16.17;;;10.10;90.90;;;;;;5073899;28;20452;-66
2022/03/31 12:28:17;;;;;;;19.90;17.33;;;10.20;90.90;;;;;;5073127;28;20993;-67
2022/03/31 12:30:46;;;;;;;22.80;17.93;;;10.30;90.80;;;;;;5073258;28;20818;-67
2022/03/31 12:33:22;;;;;;;21.57;18.50;;;10.30;90.50;;;;;;5073228;28;20465;-66
2022/03/31 12:36:00;;;;;;;19.50;17.43;;;10.30;89.90;;;;;;5073333;28;20441;-66
2022/03/31 12:38:43;;;;;;;25.10;19.73;;;10.30;90.00;;;;;;5073238;28;20472;-67
2022/03/31 12:41:16;;;;;;;21.30;17.53;;;10.30;89.60;;;;;;5073111;28;20851;-66
2022/03/31 12:43:42;;;;;;;23.83;19.97;;;10.40;89.60;;;;;;5073127;28;20436;-66
2022/03/31 12:46:14;;;;;;;20.00;15.70;;;10.40;89.70;;;;;;5072652;28;20456;-66
2022/03/31 12:48:53;;;;;;;16.83;12.23;;;10.30;88.80;;;;;;5076047;28;20448;-66
2022/03/31 12:51:21;;;;;;;11.23;9.80;;;10.20;88.80;;;;;;5076928;28;20468;-67